createdAt,value
2022-08-17T00:02:26.485Z,7.03
2022-08-17T00:05:32.021Z,8.63
2022-08-17T00:08:40.625Z,7.70
2022-08-17T00:11:43.877Z,8.52
2022-08-17T00:15:06.684Z,13.15
2022-08-17T00:18:58.369Z,13.18
2022-08-17T00:22:01.373Z,9.55
2022-08-17T00:24:54.768Z,11.70
2022-08-17T00:27:56.595Z,7.78
2022-08-17T00:30:59.871Z,8.73
2022-08-17T00:34:02.485Z,11.32
2022-08-17T00:37:04.398Z,9.45
2022-08-17T00:40:07.966Z,6.05
2022-08-17T00:43:32.380Z,8.70
2022-08-17T00:46:42.015Z,8.32
2022-08-17T00:49:43.745Z,7.10
2022-08-17T00:52:54.905Z,8.07
2022-08-17T00:55:59.913Z,8.73
2022-08-17T00:59:03.429Z,8.43
2022-08-17T01:02:08.637Z,10.98
2022-08-17T01:05:20.774Z,9.07
2022-08-17T01:08:27.080Z,12.32
2022-08-17T01:11:31.984Z,8.90
2022-08-17T01:14:33.704Z,10.93
2022-08-17T01:17:35.497Z,8.15
2022-08-17T01:20:50.017Z,9.90
2022-08-17T01:23:51.977Z,10.82
2022-08-17T01:26:53.704Z,8.73
2022-08-17T01:30:02.545Z,12.30
2022-08-17T01:33:04.610Z,9.52
2022-08-17T01:36:07.867Z,9.82
2022-08-17T01:39:29.403Z,7.53
2022-08-17T01:42:39.409Z,11.90
2022-08-17T01:45:46.942Z,6.57
2022-08-17T01:48:48.749Z,8.15
2022-08-17T01:51:50.665Z,8.73
2022-08-17T01:54:52.818Z,9.07
2022-08-17T01:57:54.588Z,12.32
2022-08-17T02:01:00.994Z,9.07
2022-08-17T02:04:04.646Z,11.38
2022-08-17T02:07:06.360Z,8.68
2022-08-17T02:10:19.962Z,8.73
2022-08-17T02:13:22.437Z,9.70
2022-08-17T02:16:24.176Z,9.73
2022-08-17T02:19:26.051Z,9.70
2022-08-17T02:22:28.992Z,9.57
2022-08-17T02:25:33.569Z,7.90
2022-08-17T02:28:35.448Z,12.32
2022-08-17T02:31:37.764Z,9.43
2022-08-17T02:34:39.472Z,13.50
2022-08-17T02:37:44.292Z,10.80
2022-08-17T02:40:50.680Z,11.55
2022-08-17T02:43:53.534Z,12.30
2022-08-17T02:46:55.321Z,14.75
2022-08-17T02:49:57.203Z,13.73
2022-08-17T02:53:02.244Z,18.35
2022-08-17T02:56:04.650Z,18.60
2022-08-17T02:59:06.549Z,17.58
2022-08-17T03:02:11.136Z,14.27
2022-08-17T03:05:15.054Z,13.27
2022-08-17T03:08:17.857Z,15.20
2022-08-17T03:11:19.543Z,16.55
2022-08-17T03:14:21.359Z,20.80
2022-08-17T03:17:27.952Z,17.20
2022-08-17T03:20:31.818Z,15.95
2022-08-17T03:23:33.693Z,17.08
2022-08-17T03:26:35.445Z,15.95
2022-08-17T03:29:37.112Z,17.02
2022-08-17T03:32:41.198Z,15.07
2022-08-17T03:35:43.315Z,19.90
2022-08-17T03:38:45.030Z,20.83
2022-08-17T03:41:46.896Z,18.30
2022-08-17T03:44:50.171Z,15.32
2022-08-17T03:48:21.173Z,14.50
2022-08-17T03:51:42.876Z,19.52
2022-08-17T03:55:03.887Z,16.77
2022-08-17T03:58:05.652Z,35.22
2022-08-17T04:01:07.578Z,18.15
2022-08-17T04:04:09.445Z,17.20
2022-08-17T04:07:11.196Z,18.35
2022-08-17T04:10:13.980Z,19.80
2022-08-17T04:13:15.724Z,18.38
2022-08-17T04:16:25.878Z,20.63
2022-08-17T04:19:27.661Z,20.00
2022-08-17T04:22:32.401Z,25.63
2022-08-17T04:25:39.060Z,19.08
2022-08-17T04:28:44.818Z,16.80
2022-08-17T04:31:46.514Z,16.85
2022-08-17T04:34:48.213Z,19.00
2022-08-17T04:37:50.278Z,18.45
2022-08-17T04:41:10.963Z,17.27
2022-08-17T04:44:12.674Z,22.13
2022-08-17T04:47:30.090Z,18.33
2022-08-17T04:50:36.483Z,26.08
2022-08-17T04:53:46.149Z,18.13
2022-08-17T04:56:55.622Z,18.40
2022-08-17T04:59:57.328Z,18.15
2022-08-17T05:02:59.089Z,24.63
2022-08-17T05:06:00.858Z,20.67
2022-08-17T05:09:03.670Z,23.27
2022-08-17T05:12:06.068Z,18.55
2022-08-17T05:15:17.305Z,21.83
2022-08-17T05:18:22.049Z,21.92
2022-08-17T05:21:27.241Z,24.23
2022-08-17T05:24:40.775Z,17.20
2022-08-17T05:27:45.090Z,17.33
2022-08-17T05:30:49.311Z,20.53
2022-08-17T05:33:51.237Z,25.30
2022-08-17T05:36:52.907Z,19.40
2022-08-17T05:39:54.695Z,17.83
2022-08-17T05:43:15.981Z,21.70
2022-08-17T05:46:17.662Z,18.23
2022-08-17T05:49:28.201Z,20.83
2022-08-17T05:53:04.650Z,19.48
2022-08-17T05:56:29.743Z,19.13
2022-08-17T05:59:44.810Z,19.80
2022-08-17T06:03:23.947Z,17.98
2022-08-17T06:06:42.274Z,19.15
2022-08-17T06:09:52.860Z,18.33
2022-08-17T06:13:14.441Z,21.10
2022-08-17T06:16:34.259Z,20.92
2022-08-17T06:19:41.129Z,22.38
2022-08-17T06:22:50.918Z,23.23
2022-08-17T06:25:57.487Z,17.27
2022-08-17T06:29:19.930Z,17.15
2022-08-17T06:32:22.841Z,17.83
2022-08-17T06:35:51.489Z,17.83
2022-08-17T06:39:28.154Z,19.58
2022-08-17T06:43:07.693Z,16.98
2022-08-17T06:46:19.162Z,16.58
2022-08-17T06:49:30.116Z,16.02
2022-08-17T06:52:46.324Z,12.82
2022-08-17T06:56:09.516Z,13.25
2022-08-17T06:59:18.304Z,15.02
2022-08-17T07:03:02.552Z,15.15
2022-08-17T07:06:05.292Z,17.65
2022-08-17T07:09:18.537Z,11.82
2022-08-17T07:12:26.247Z,11.93
2022-08-17T07:15:42.304Z,8.95
2022-08-17T07:18:44.444Z,8.45
2022-08-17T07:21:56.012Z,7.18
2022-08-17T07:25:02.152Z,7.75
2022-08-17T07:28:07.334Z,15.02
2022-08-17T07:31:13.214Z,7.28
2022-08-17T07:34:15.087Z,7.15
2022-08-17T07:37:19.249Z,8.18
2022-08-17T07:40:49.671Z,6.85
2022-08-17T07:43:52.741Z,7.63
2022-08-17T07:47:13.544Z,6.93
2022-08-17T07:50:29.324Z,9.25
2022-08-17T07:53:31.861Z,7.97
2022-08-17T07:56:46.409Z,8.02
2022-08-17T08:00:01.479Z,8.75
2022-08-17T08:03:25.953Z,4.88
2022-08-17T08:06:28.029Z,8.55
2022-08-17T08:09:38.348Z,8.38
2022-08-17T08:12:47.961Z,8.82
2022-08-17T08:16:12.310Z,5.72
2022-08-17T08:19:20.914Z,5.07
2022-08-17T08:22:31.309Z,9.85
2022-08-17T08:26:18.550Z,7.57
2022-08-17T08:29:40.898Z,8.70
2022-08-17T08:32:57.232Z,6.22
2022-08-17T08:37:02.464Z,5.97
2022-08-17T08:39:48.069Z,7.32
2022-08-17T08:43:05.064Z,7.00
2022-08-17T08:46:39.473Z,8.68
2022-08-17T08:50:37.485Z,11.27
2022-08-17T08:53:58.561Z,5.28
2022-08-17T08:57:25.592Z,6.93
2022-08-17T09:00:35.734Z,5.32
2022-08-17T09:04:19.938Z,9.45
2022-08-17T09:07:44.009Z,5.90
2022-08-17T09:11:03.559Z,5.97
2022-08-17T09:14:21.655Z,7.32
2022-08-17T09:17:40.026Z,7.30
2022-08-17T09:20:50.313Z,8.02
2022-08-17T09:24:06.142Z,4.00
2022-08-17T09:27:15.599Z,6.47
2022-08-17T09:30:18.225Z,6.38
2022-08-17T09:33:26.016Z,5.28
2022-08-17T09:36:42.116Z,7.05
2022-08-17T09:40:10.238Z,8.95
2022-08-17T09:43:30.970Z,5.78
2022-08-17T09:46:51.881Z,11.73
2022-08-17T09:50:01.482Z,12.00
2022-08-17T09:53:03.517Z,5.45
2022-08-17T09:56:14.003Z,15.18
2022-08-17T09:59:39.309Z,6.03
2022-08-17T10:03:25.283Z,7.10
2022-08-17T10:06:34.387Z,6.78
2022-08-17T10:09:59.876Z,5.63
2022-08-17T10:13:15.816Z,8.73
2022-08-17T10:16:27.309Z,4.85
2022-08-17T10:19:40.108Z,4.93
2022-08-17T10:23:10.548Z,7.22
2022-08-17T10:26:23.882Z,5.93
2022-08-17T10:29:28.856Z,9.50
2022-08-17T10:32:37.746Z,5.03
2022-08-17T10:36:10.642Z,6.75
2022-08-17T10:39:30.561Z,6.55
2022-08-17T10:42:44.401Z,6.25
2022-08-17T10:46:31.007Z,6.43
2022-08-17T10:49:40.558Z,6.68
2022-08-17T10:52:42.301Z,5.97
2022-08-17T10:56:17.888Z,7.45
2022-08-17T10:59:34.690Z,6.20
2022-08-17T11:02:49.728Z,6.88
2022-08-17T11:06:21.430Z,6.75
2022-08-17T11:09:54.134Z,6.15
2022-08-17T11:13:07.299Z,8.48
2022-08-17T11:16:17.190Z,4.80
2022-08-17T11:19:46.943Z,6.00
2022-08-17T11:23:00.952Z,7.85
2022-08-17T11:26:18.146Z,7.75
2022-08-17T11:29:24.762Z,9.48
2022-08-17T11:32:54.375Z,6.75
2022-08-17T11:36:20.559Z,7.63
2022-08-17T11:39:25.241Z,10.68
2022-08-17T11:42:54.653Z,10.20
2022-08-17T11:46:02.666Z,7.93
2022-08-17T11:49:38.189Z,11.95
2022-08-17T11:52:48.850Z,7.95
2022-08-17T11:55:53.604Z,7.70
2022-08-17T11:58:55.433Z,9.13
2022-08-17T12:01:57.242Z,16.00
2022-08-17T12:05:14.657Z,9.45
2022-08-17T12:08:21.418Z,14.38
2022-08-17T12:11:58.767Z,18.48
2022-08-17T12:15:10.595Z,13.75
2022-08-17T12:18:25.769Z,11.63
2022-08-17T12:21:31.448Z,15.27
2022-08-17T12:25:08.765Z,13.55
2022-08-17T12:28:32.177Z,15.07
2022-08-17T12:31:53.734Z,17.30
2022-08-17T12:34:56.067Z,26.02
2022-08-17T12:37:57.919Z,12.95
2022-08-17T12:40:59.932Z,16.08
2022-08-17T12:44:23.085Z,11.30
2022-08-17T12:47:24.978Z,13.82
2022-08-17T12:50:32.261Z,15.20
2022-08-17T12:53:37.290Z,16.77
2022-08-17T12:56:41.522Z,13.25
2022-08-17T12:59:47.449Z,14.10
2022-08-17T13:03:16.428Z,16.13
2022-08-17T13:06:32.035Z,16.40
2022-08-17T13:09:40.555Z,13.90
2022-08-17T13:12:42.639Z,16.38
2022-08-17T13:15:54.240Z,16.73
2022-08-17T13:19:39.998Z,12.60
2022-08-17T13:22:45.209Z,16.13
2022-08-17T13:25:55.150Z,15.88
2022-08-17T13:28:57.515Z,15.90
2022-08-17T13:32:13.000Z,13.68
2022-08-17T13:35:39.582Z,15.15
2022-08-17T13:38:51.028Z,17.92
2022-08-17T13:41:55.339Z,21.30
2022-08-17T13:44:57.691Z,28.15
2022-08-17T13:48:16.573Z,21.20
2022-08-17T13:51:42.826Z,19.33
2022-08-17T13:54:51.747Z,19.75
2022-08-17T13:58:06.654Z,13.52
2022-08-17T14:01:28.793Z,16.80
2022-08-17T14:04:33.112Z,21.55
2022-08-17T14:07:40.696Z,19.70
2022-08-17T14:10:43.497Z,16.55
2022-08-17T14:13:46.594Z,21.63
2022-08-17T14:16:48.633Z,23.58
2022-08-17T14:19:51.139Z,20.67
2022-08-17T14:22:55.548Z,24.23
2022-08-17T14:25:57.249Z,27.77
2022-08-17T14:28:59.049Z,21.65
2022-08-17T14:32:09.234Z,24.75
2022-08-17T14:35:15.505Z,23.25
2022-08-17T14:38:17.546Z,22.80
2022-08-17T14:41:22.202Z,29.83
2022-08-17T14:44:24.354Z,27.08
2022-08-17T14:47:29.344Z,23.15
2022-08-17T14:50:32.010Z,23.95
2022-08-17T14:53:37.634Z,22.15
2022-08-17T14:56:39.349Z,22.92
2022-08-17T14:59:41.109Z,20.48
2022-08-17T15:02:54.863Z,23.60
2022-08-17T15:05:56.745Z,25.30
2022-08-17T15:08:58.461Z,24.92
2022-08-17T15:12:03.858Z,30.10
2022-08-17T15:15:07.176Z,21.00
2022-08-17T15:18:08.874Z,26.35
2022-08-17T15:21:10.785Z,27.73
2022-08-17T15:24:13.722Z,36.15
2022-08-17T15:27:15.529Z,25.13
2022-08-17T15:30:26.879Z,28.15
2022-08-17T15:33:30.228Z,24.83
2022-08-17T15:36:32.788Z,25.83
2022-08-17T15:39:34.507Z,26.92
2022-08-17T15:42:36.369Z,30.50
2022-08-17T15:45:38.693Z,28.95
2022-08-17T15:48:42.870Z,28.45
2022-08-17T15:51:44.560Z,30.55
2022-08-17T15:55:06.736Z,34.22
2022-08-17T15:58:08.404Z,32.65
2022-08-17T16:01:14.824Z,27.33
2022-08-17T16:04:30.294Z,25.60
2022-08-17T16:07:33.061Z,29.98
2022-08-17T16:10:36.056Z,28.58
2022-08-17T16:13:39.558Z,35.03
2022-08-17T16:16:41.802Z,31.90
2022-08-17T16:19:44.225Z,31.35
2022-08-17T16:22:46.221Z,40.53
2022-08-17T16:25:53.026Z,31.60
2022-08-17T16:28:56.973Z,34.05
2022-08-17T16:32:06.804Z,33.78
2022-08-17T16:35:11.893Z,33.72
2022-08-17T16:38:13.578Z,30.17
2022-08-17T16:41:35.748Z,31.60
2022-08-17T16:44:37.459Z,31.08
2022-08-17T16:47:40.104Z,30.70
2022-08-17T16:50:42.484Z,32.33
2022-08-17T16:54:05.994Z,30.23
2022-08-17T16:57:07.756Z,29.90
2022-08-17T17:00:12.926Z,29.48
2022-08-17T17:03:21.988Z,33.08
2022-08-17T17:06:43.675Z,28.38
2022-08-17T17:09:48.776Z,31.23
2022-08-17T17:13:03.812Z,28.20
2022-08-17T17:16:48.931Z,28.38
2022-08-17T17:20:09.700Z,31.30
2022-08-17T17:23:36.034Z,30.92
2022-08-17T17:26:55.713Z,27.50
2022-08-17T17:30:14.623Z,28.83
2022-08-17T17:33:22.388Z,29.50
2022-08-17T17:36:41.630Z,27.65
2022-08-17T17:39:53.489Z,31.13
2022-08-17T17:43:14.193Z,28.83
2022-08-17T17:46:29.158Z,29.45
2022-08-17T17:49:37.920Z,32.53
2022-08-17T17:52:54.792Z,29.85
2022-08-17T17:56:34.334Z,31.27
2022-08-17T18:00:03.703Z,28.67
2022-08-17T18:03:33.795Z,28.98
2022-08-17T18:07:03.480Z,31.25
2022-08-17T18:10:19.565Z,28.33
2022-08-17T18:14:02.496Z,28.42
2022-08-17T18:17:05.674Z,30.25
2022-08-17T18:20:07.539Z,31.38
2022-08-17T18:23:09.331Z,33.75
2022-08-17T18:26:11.223Z,27.50
2022-08-17T18:29:34.270Z,27.27
2022-08-17T18:32:39.026Z,30.48
2022-08-17T18:35:58.842Z,26.40
2022-08-17T18:39:27.031Z,23.30
2022-08-17T18:42:29.977Z,29.40
2022-08-17T18:45:38.432Z,31.20
2022-08-17T18:48:59.116Z,27.13
2022-08-17T18:52:23.017Z,27.00
2022-08-17T18:55:31.162Z,24.73
2022-08-17T18:58:32.876Z,25.70
2022-08-17T19:01:52.606Z,24.30
2022-08-17T19:05:01.497Z,24.17
2022-08-17T19:08:24.263Z,23.50
2022-08-17T19:11:33.998Z,26.30
2022-08-17T19:14:35.905Z,24.52
2022-08-17T19:18:02.153Z,25.05
2022-08-17T19:21:18.917Z,28.00
2022-08-17T19:24:24.360Z,25.00
2022-08-17T19:28:02.976Z,25.40
2022-08-17T19:31:16.496Z,28.50
2022-08-17T19:34:30.242Z,24.60
2022-08-17T19:38:12.741Z,24.00
2022-08-17T19:41:21.244Z,23.83
2022-08-17T19:44:51.119Z,23.13
2022-08-17T19:48:02.891Z,23.50
2022-08-17T19:51:17.748Z,28.15
2022-08-17T19:54:35.032Z,24.30
2022-08-17T19:57:58.088Z,23.25
2022-08-17T20:01:00.061Z,28.90
2022-08-17T20:04:08.050Z,26.00
2022-08-17T20:07:19.828Z,25.98
2022-08-17T20:10:47.297Z,27.85
2022-08-17T20:14:09.433Z,28.40
2022-08-17T20:17:12.283Z,23.02
2022-08-17T20:20:41.191Z,27.42
2022-08-17T20:24:01.646Z,31.20
2022-08-17T20:27:19.562Z,30.90
2022-08-17T20:30:40.300Z,26.92
2022-08-17T20:33:42.075Z,28.77
2022-08-17T20:37:01.035Z,26.95
2022-08-17T20:40:07.482Z,29.73
2022-08-17T20:43:45.685Z,28.30
2022-08-17T20:47:05.313Z,27.88
2022-08-17T20:50:36.287Z,28.15
2022-08-17T20:53:46.867Z,32.15
2022-08-17T20:56:52.027Z,29.85
2022-08-17T20:59:55.194Z,30.63
2022-08-17T21:03:18.928Z,30.75
2022-08-17T21:06:22.649Z,35.38
2022-08-17T21:09:29.871Z,28.95
2022-08-17T21:12:41.789Z,40.58
2022-08-17T21:15:53.295Z,36.75
2022-08-17T21:18:54.946Z,43.00
2022-08-17T21:22:31.035Z,43.10
2022-08-17T21:26:02.652Z,42.78
2022-08-17T21:29:19.480Z,38.58
2022-08-17T21:32:35.633Z,39.08
2022-08-17T21:36:00.990Z,36.95
2022-08-17T21:39:08.806Z,39.13
2022-08-17T21:42:12.484Z,39.47
2022-08-17T21:45:35.432Z,34.97
2022-08-17T21:48:48.125Z,39.42
2022-08-17T21:51:54.145Z,41.55
2022-08-17T21:55:00.227Z,39.80
2022-08-17T21:58:14.195Z,42.40
2022-08-17T22:01:23.790Z,36.42
2022-08-17T22:04:34.674Z,40.45
2022-08-17T22:07:46.237Z,41.15
2022-08-17T22:10:51.144Z,41.40
2022-08-17T22:13:57.306Z,52.50
2022-08-17T22:17:22.843Z,47.08
2022-08-17T22:20:24.701Z,42.20
2022-08-17T22:23:53.440Z,41.75
2022-08-17T22:27:02.144Z,45.17
2022-08-17T22:30:31.968Z,44.55
2022-08-17T22:33:40.283Z,49.72
2022-08-17T22:36:42.605Z,46.88
2022-08-17T22:39:45.284Z,48.17
2022-08-17T22:42:47.506Z,47.13
2022-08-17T22:45:53.324Z,44.13
2022-08-17T22:48:59.225Z,45.22
2022-08-17T22:52:29.136Z,50.15
2022-08-17T22:55:52.539Z,48.58
2022-08-17T22:59:15.937Z,49.90
2022-08-17T23:02:26.907Z,52.63
2022-08-17T23:05:28.776Z,53.53
2022-08-17T23:08:31.328Z,47.78
2022-08-17T23:11:49.267Z,49.88
2022-08-17T23:14:58.332Z,57.08
2022-08-17T23:18:04.756Z,54.67
2022-08-17T23:21:07.633Z,54.40
2022-08-17T23:24:10.715Z,49.05
2022-08-17T23:27:12.956Z,47.72
2022-08-17T23:30:14.729Z,56.50
2022-08-17T23:33:29.851Z,52.22
2022-08-17T23:36:32.394Z,52.22
2022-08-17T23:39:34.819Z,52.72
2022-08-17T23:42:41.994Z,50.63
2022-08-17T23:45:48.149Z,51.33
2022-08-17T23:48:53.405Z,45.95
2022-08-17T23:51:55.282Z,48.55
2022-08-17T23:54:57.430Z,45.15
2022-08-17T23:57:59.175Z,45.40
